Time;durP1;ratioP1;P1;durP2;ratioP2;P2;SDS_P1;SDS_P2;PMS_P1;PMS_P2;Temp;Humidity;BMP_temperature;BMP_pressure;BME280_temperature;BME280_humidity;BME280_pressure;Samples;Min_cycle;Max_cycle;Signal;HPM_P1;HPM_P2
2023/09/10 00:01:12;;;;;;;17.95;16.15;;;16.40;99.90;;;;;;4981614;28;20042;-85
2023/09/10 00:03:38;;;;;;;15.63;14.00;;;16.40;99.90;;;;;;4983971;28;20035;-86
2023/09/10 00:06:08;;;;;;;13.27;11.90;;;16.30;99.90;;;;;;5008899;28;20042;-86
2023/09/10 00:08:34;;;;;;;21.40;19.10;;;16.40;99.90;;;;;;4989972;28;20819;-85
2023/09/10 00:11:00;;;;;;;27.83;23.88;;;16.30;99.90;;;;;;5004685;28;20038;-85
2023/09/10 00:13:26;;;;;;;27.85;24.40;;;16.30;99.90;;;;;;4985009;28;20516;-85
2023/09/10 00:15:53;;;;;;;24.48;21.40;;;16.30;99.90;;;;;;4963776;28;20049;-85
2023/09/10 00:18:19;;;;;;;24.75;22.05;;;16.30;99.90;;;;;;4998165;28;20402;-85
2023/09/10 00:20:51;;;;;;;34.17;27.92;;;16.30;99.90;;;;;;4957484;28;20047;-85
2023/09/10 00:23:20;;;;;;;30.05;25.48;;;16.40;99.90;;;;;;4970942;28;20039;-85
2023/09/10 00:25:45;;;;;;;26.23;22.10;;;16.30;99.90;;;;;;4964324;28;20197;-85
2023/09/10 00:28:11;;;;;;;29.45;25.52;;;16.20;99.90;;;;;;4983800;28;20038;-85
2023/09/10 00:30:40;;;;;;;30.25;25.70;;;16.30;99.90;;;;;;4980827;28;20042;-84
2023/09/10 00:33:05;;;;;;;29.83;24.77;;;16.30;99.90;;;;;;4971283;28;20407;-85
2023/09/10 00:35:31;;;;;;;31.08;27.05;;;16.20;99.90;;;;;;4961686;28;20097;-85
2023/09/10 00:37:56;;;;;;;31.80;24.77;;;16.20;99.90;;;;;;4983079;28;20164;-85
2023/09/10 00:40:22;;;;;;;29.70;26.25;;;16.20;99.90;;;;;;5011943;28;20073;-86
2023/09/10 00:42:48;;;;;;;19.25;17.17;;;16.30;99.90;;;;;;4996958;28;20580;-85
2023/09/10 00:45:13;;;;;;;27.77;22.88;;;16.20;99.90;;;;;;4964383;28;20042;-85
2023/09/10 00:47:46;;;;;;;26.70;23.23;;;16.20;99.90;;;;;;5006798;28;20069;-85
2023/09/10 00:50:14;;;;;;;22.73;20.30;;;16.20;99.90;;;;;;4979457;28;20052;-85
2023/09/10 00:52:44;;;;;;;22.00;19.73;;;16.20;99.90;;;;;;4980687;28;20049;-85
2023/09/10 00:55:10;;;;;;;26.10;23.38;;;16.20;99.90;;;;;;4971526;28;20046;-85
2023/09/10 00:57:37;;;;;;;22.52;20.02;;;16.10;99.90;;;;;;4998328;28;20058;-84
2023/09/10 01:00:07;;;;;;;26.58;23.85;;;16.10;99.90;;;;;;4975769;28;20137;-85
2023/09/10 01:02:34;;;;;;;24.50;21.95;;;16.10;99.90;;;;;;4986814;28;20848;-84
2023/09/10 01:05:00;;;;;;;21.65;19.45;;;16.00;99.90;;;;;;5001065;28;20044;-84
2023/09/10 01:07:26;;;;;;;27.75;24.65;;;16.00;99.90;;;;;;4972708;28;20339;-84
2023/09/10 01:09:52;;;;;;;21.38;19.08;;;16.00;99.90;;;;;;4993638;28;20052;-85
2023/09/10 01:12:32;;;;;;;26.63;22.65;;;16.00;99.90;;;;;;4983585;28;20041;-85
2023/09/10 01:14:57;;;;;;;36.08;32.13;;;16.00;99.90;;;;;;4979648;28;20126;-84
2023/09/10 01:17:57;;;;;;;34.38;30.70;;;16.00;99.90;;;;;;4972326;28;20173;-85
2023/09/10 01:20:43;;;;;;;29.80;25.85;;;16.00;99.90;;;;;;4996731;28;20043;-84
2023/09/10 01:23:15;;;;;;;33.45;29.80;;;15.90;99.90;;;;;;4979270;28;20065;-84
2023/09/10 01:25:41;;;;;;;24.98;22.33;;;15.90;99.90;;;;;;4985896;28;20501;-84
2023/09/10 01:28:07;;;;;;;26.58;23.83;;;15.90;99.90;;;;;;4981644;28;21052;-84
2023/09/10 01:30:33;;;;;;;29.23;26.17;;;15.90;99.90;;;;;;4964133;28;20041;-84
2023/09/10 01:33:16;;;;;;;28.83;24.80;;;15.90;99.90;;;;;;4980425;28;20042;-85
2023/09/10 01:36:07;;;;;;;30.67;27.38;;;15.90;99.90;;;;;;4985569;28;20038;-84
2023/09/10 01:38:43;;;;;;;27.15;24.30;;;15.90;99.90;;;;;;5016136;28;20038;-84
2023/09/10 01:41:21;;;;;;;30.92;26.98;;;15.90;99.90;;;;;;4988189;28;20081;-84
2023/09/10 01:43:47;;;;;;;32.88;29.17;;;15.90;99.90;;;;;;4983344;28;20588;-85
2023/09/10 01:46:18;;;;;;;30.00;26.75;;;15.90;99.90;;;;;;4984822;28;20245;-84
2023/09/10 01:48:44;;;;;;;26.13;23.42;;;15.80;99.90;;;;;;4996996;28;20081;-85
2023/09/10 01:51:10;;;;;;;28.17;25.13;;;15.80;99.90;;;;;;4977008;28;20514;-85
2023/09/10 01:53:35;;;;;;;26.13;22.70;;;15.80;99.90;;;;;;4991565;28;20046;-84
2023/09/10 01:56:02;;;;;;;24.00;21.40;;;15.80;99.90;;;;;;5013099;28;20042;-84
2023/09/10 01:58:27;;;;;;;24.45;21.95;;;15.80;99.90;;;;;;4982451;28;20034;-85
2023/09/10 02:00:53;;;;;;;12.30;11.13;;;15.80;99.90;;;;;;4971540;28;20042;-84
2023/09/10 02:03:19;;;;;;;22.67;12.73;;;15.70;99.90;;;;;;4990738;28;20252;-84
2023/09/10 02:05:44;;;;;;;18.27;15.23;;;15.60;99.90;;;;;;4968725;28;20041;-85
2023/09/10 02:08:10;;;;;;;21.23;19.02;;;15.60;99.90;;;;;;4963183;28;20059;-84
2023/09/10 02:10:36;;;;;;;27.48;24.58;;;15.60;99.90;;;;;;5003120;28;20115;-84
2023/09/10 02:13:03;;;;;;;23.38;20.98;;;15.60;99.90;;;;;;4967390;28;20042;-85
2023/09/10 02:15:29;;;;;;;23.35;20.98;;;15.60;99.90;;;;;;4984617;28;20120;-84
2023/09/10 02:17:54;;;;;;;23.58;21.17;;;15.60;99.90;;;;;;4988860;28;20049;-84
2023/09/10 02:20:20;;;;;;;23.90;21.38;;;15.60;99.90;;;;;;5023277;28;20046;-84
2023/09/10 02:22:46;;;;;;;24.15;21.55;;;15.60;99.90;;;;;;5021214;28;20045;-85
2023/09/10 02:25:12;;;;;;;28.75;25.42;;;15.60;99.90;;;;;;4991471;28;20059;-84
2023/09/10 02:27:38;;;;;;;30.50;26.08;;;15.60;99.90;;;;;;5018767;28;20121;-84
2023/09/10 02:30:06;;;;;;;35.22;29.98;;;15.60;99.90;;;;;;4984370;28;20181;-84
2023/09/10 02:32:32;;;;;;;32.08;28.55;;;15.60;99.90;;;;;;4976814;28;20049;-84
2023/09/10 02:34:58;;;;;;;31.73;28.23;;;15.60;99.90;;;;;;5013896;28;20050;-86
2023/09/10 02:37:23;;;;;;;30.55;27.35;;;15.60;99.90;;;;;;4975116;28;20248;-84
2023/09/10 02:39:49;;;;;;;32.53;27.67;;;15.60;99.90;;;;;;5023471;28;20057;-84
2023/09/10 02:42:16;;;;;;;30.58;27.27;;;15.60;99.90;;;;;;4975633;28;20039;-85
2023/09/10 02:44:42;;;;;;;29.35;26.05;;;15.50;99.90;;;;;;4983230;28;20383;-84
2023/09/10 02:47:08;;;;;;;25.33;22.10;;;15.50;99.90;;;;;;4988259;28;20061;-84
2023/09/10 02:49:34;;;;;;;28.38;25.38;;;15.50;99.90;;;;;;5005605;28;20417;-84
2023/09/10 02:52:00;;;;;;;29.13;26.00;;;15.50;99.90;;;;;;4989639;28;20065;-84
2023/09/10 02:54:25;;;;;;;20.08;17.77;;;15.50;99.90;;;;;;4974545;28;20053;-84
2023/09/10 02:56:51;;;;;;;20.98;18.80;;;15.40;99.90;;;;;;4975760;28;20073;-84
2023/09/10 02:59:23;;;;;;;20.92;17.48;;;15.40;99.90;;;;;;4998295;28;20034;-85
2023/09/10 03:01:49;;;;;;;23.90;21.33;;;15.40;99.90;;;;;;4968355;28;20448;-84
2023/09/10 03:04:15;;;;;;;21.15;18.90;;;15.40;99.90;;;;;;4968898;28;20418;-84
2023/09/10 03:06:49;;;;;;;18.92;16.95;;;15.20;99.90;;;;;;4969209;28;20831;-84
2023/09/10 03:09:17;;;;;;;14.98;13.65;;;15.20;99.90;;;;;;5020752;28;20069;-84
2023/09/10 03:11:44;;;;;;;20.08;18.05;;;15.30;99.90;;;;;;4978675;28;20039;-84
2023/09/10 03:14:10;;;;;;;26.33;22.17;;;15.20;99.90;;;;;;5008317;28;20042;-84
2023/09/10 03:16:38;;;;;;;25.40;22.65;;;15.30;99.90;;;;;;4971041;28;20037;-85
2023/09/10 03:19:04;;;;;;;26.50;22.67;;;15.30;99.90;;;;;;5001486;28;20534;-84
2023/09/10 03:21:30;;;;;;;19.52;17.05;;;15.30;99.90;;;;;;4984918;28;20038;-85
2023/09/10 03:23:56;;;;;;;16.70;15.00;;;15.20;99.90;;;;;;4990378;28;20564;-84
2023/09/10 03:26:22;;;;;;;27.80;24.35;;;15.20;99.90;;;;;;4985046;28;20039;-84
2023/09/10 03:28:50;;;;;;;23.95;20.13;;;15.20;99.90;;;;;;4977129;28;20050;-85
2023/09/10 03:31:16;;;;;;;23.25;20.70;;;15.30;99.90;;;;;;4982356;28;20369;-85
2023/09/10 03:33:41;;;;;;;23.00;20.25;;;15.20;99.90;;;;;;5002428;28;20045;-85
2023/09/10 03:36:09;;;;;;;24.67;21.95;;;15.20;99.90;;;;;;4984033;28;20041;-84
2023/09/10 03:38:35;;;;;;;23.90;21.30;;;15.30;99.90;;;;;;4970736;28;20126;-84
2023/09/10 03:41:03;;;;;;;25.65;22.85;;;15.20;99.90;;;;;;4965688;28;20133;-84
2023/09/10 03:43:29;;;;;;;25.73;22.92;;;15.30;99.90;;;;;;5000470;28;20282;-84
2023/09/10 03:45:54;;;;;;;22.05;19.77;;;15.30;99.90;;;;;;4980862;28;20052;-84
2023/09/10 03:48:20;;;;;;;26.63;23.17;;;15.20;99.90;;;;;;4973561;28;20070;-84
2023/09/10 03:50:46;;;;;;;24.30;21.10;;;15.20;99.90;;;;;;5003524;28;20119;-84
2023/09/10 03:53:11;;;;;;;20.20;17.35;;;15.20;99.90;;;;;;4984523;28;20046;-84
2023/09/10 03:55:37;;;;;;;16.17;14.52;;;15.20;99.90;;;;;;4987752;28;20122;-84
2023/09/10 03:58:03;;;;;;;18.42;16.30;;;15.10;99.90;;;;;;5017619;28;20054;-84
2023/09/10 04:00:33;;;;;;;21.17;18.98;;;15.10;99.90;;;;;;4980260;28;20037;-85
2023/09/10 04:02:59;;;;;;;23.15;19.48;;;15.10;99.90;;;;;;4990105;28;20126;-84
2023/09/10 04:05:25;;;;;;;27.48;22.33;;;15.10;99.90;;;;;;5010045;28;20031;-85
2023/09/10 04:07:50;;;;;;;24.23;21.73;;;15.10;99.90;;;;;;4980154;28;20112;-84
2023/09/10 04:10:16;;;;;;;16.83;15.02;;;15.10;99.90;;;;;;5020698;28;20370;-84
2023/09/10 04:12:42;;;;;;;26.58;22.55;;;15.10;99.90;;;;;;4960925;28;20417;-84
2023/09/10 04:15:09;;;;;;;25.48;21.67;;;15.10;99.90;;;;;;4984119;28;20042;-84
2023/09/10 04:17:34;;;;;;;29.55;18.35;;;15.00;99.90;;;;;;4985134;28;20133;-84
2023/09/10 04:20:00;;;;;;;20.73;18.52;;;15.00;99.90;;;;;;4982665;28;20122;-84
2023/09/10 04:22:26;;;;;;;18.02;15.82;;;15.00;99.90;;;;;;4996682;28;20089;-84
2023/09/10 04:24:52;;;;;;;20.67;17.27;;;15.00;99.90;;;;;;4979661;28;20031;-83
2023/09/10 04:27:18;;;;;;;15.82;14.07;;;14.90;99.90;;;;;;4955685;28;20524;-84
2023/09/10 04:29:43;;;;;;;21.23;19.02;;;14.90;99.90;;;;;;4985290;28;20033;-84
2023/09/10 04:32:09;;;;;;;21.27;18.92;;;14.90;99.90;;;;;;5018520;28;20497;-84
2023/09/10 04:34:34;;;;;;;20.13;17.58;;;14.90;99.90;;;;;;4955662;28;20261;-84
2023/09/10 04:37:03;;;;;;;9.50;8.68;;;14.90;99.90;;;;;;5016333;28;20046;-85
2023/09/10 04:39:28;;;;;;;11.98;10.77;;;14.80;99.90;;;;;;5004799;28;20130;-84
2023/09/10 04:41:54;;;;;;;13.18;11.88;;;14.80;99.90;;;;;;4970717;28;20229;-84
2023/09/10 04:44:20;;;;;;;19.05;16.42;;;14.80;99.90;;;;;;4969762;28;20046;-84
2023/09/10 04:46:46;;;;;;;17.63;15.13;;;14.90;99.90;;;;;;5003972;28;20069;-84
2023/09/10 04:49:12;;;;;;;15.38;13.38;;;14.80;99.90;;;;;;4982736;28;20043;-84
2023/09/10 04:51:38;;;;;;;20.50;18.15;;;14.80;99.90;;;;;;4967481;28;20125;-84
2023/09/10 04:54:04;;;;;;;24.10;19.83;;;14.90;99.90;;;;;;4969599;28;20509;-84
2023/09/10 04:56:33;;;;;;;18.77;15.77;;;14.90;99.90;;;;;;4987795;28;20587;-84
2023/09/10 04:58:59;;;;;;;18.30;15.07;;;14.90;99.90;;;;;;4961727;28;20529;-84
2023/09/10 05:01:25;;;;;;;256.98;18.92;;;14.90;99.90;;;;;;4966527;28;20062;-84
2023/09/10 05:03:51;;;;;;;18.38;12.57;;;14.70;99.90;;;;;;4986950;28;20553;-87
2023/09/10 05:06:19;;;;;;;13.32;11.05;;;14.70;99.90;;;;;;4998046;28;20037;-87
2023/09/10 05:08:48;;;;;;;15.75;14.02;;;14.70;99.90;;;;;;5018115;28;20050;-87
2023/09/10 05:11:14;;;;;;;13.15;11.75;;;14.80;99.90;;;;;;4969154;28;20064;-86
2023/09/10 05:13:40;;;;;;;17.55;15.65;;;14.80;99.90;;;;;;4981843;28;20042;-86
2023/09/10 05:16:05;;;;;;;19.35;17.35;;;14.90;99.90;;;;;;4965759;28;20039;-86
2023/09/10 05:18:31;;;;;;;19.98;17.90;;;14.90;99.90;;;;;;4973428;28;20043;-86
2023/09/10 05:20:57;;;;;;;21.85;18.63;;;14.90;99.90;;;;;;4967721;28;20571;-87
2023/09/10 05:23:26;;;;;;;11.32;10.32;;;14.90;99.90;;;;;;4974563;28;20038;-86
2023/09/10 05:25:52;;;;;;;11.63;10.40;;;14.80;99.90;;;;;;5017594;28;20046;-86
2023/09/10 05:28:17;;;;;;;16.13;11.30;;;14.80;99.90;;;;;;4971248;28;20035;-87
2023/09/10 05:30:43;;;;;;;11.50;10.50;;;14.90;99.90;;;;;;4960077;28;20129;-87
2023/09/10 05:33:09;;;;;;;14.63;13.23;;;14.90;99.90;;;;;;4991120;28;20074;-87
2023/09/10 05:35:35;;;;;;;14.55;13.05;;;15.00;99.90;;;;;;5012311;28;20037;-86
2023/09/10 05:38:00;;;;;;;16.23;14.68;;;15.10;99.90;;;;;;5012878;28;20371;-87
2023/09/10 05:40:26;;;;;;;16.60;15.00;;;15.20;99.90;;;;;;4984412;28;20050;-87
2023/09/10 05:42:52;;;;;;;15.50;14.00;;;15.20;99.90;;;;;;4977272;28;20039;-87
2023/09/10 05:45:18;;;;;;;14.30;13.00;;;15.20;99.90;;;;;;4961751;28;20053;-87
2023/09/10 05:47:44;;;;;;;84.63;20.23;;;15.20;99.90;;;;;;4985659;28;20050;-87
2023/09/10 05:50:10;;;;;;;90.22;16.95;;;15.30;99.90;;;;;;5016281;28;20448;-87
2023/09/10 05:52:36;;;;;;;22.15;19.77;;;15.20;99.90;;;;;;5017885;28;20440;-87
2023/09/10 05:55:02;;;;;;;18.10;16.15;;;15.30;99.90;;;;;;4986050;28;20034;-87
2023/09/10 05:57:28;;;;;;;17.98;16.08;;;15.40;99.90;;;;;;4968550;28;20226;-87
2023/09/10 05:59:53;;;;;;;16.42;14.80;;;15.50;99.90;;;;;;4985984;28;20233;-86
2023/09/10 06:02:19;;;;;;;12.43;11.23;;;15.50;99.90;;;;;;4981041;28;20046;-87
2023/09/10 06:04:48;;;;;;;18.90;16.88;;;15.60;99.90;;;;;;4990453;28;20449;-87
2023/09/10 06:07:13;;;;;;;22.25;19.17;;;15.70;99.90;;;;;;4980191;28;20042;-87
2023/09/10 06:09:44;;;;;;;24.92;21.33;;;15.80;99.90;;;;;;4973460;28;20167;-87
2023/09/10 06:12:10;;;;;;;24.77;21.35;;;16.00;99.90;;;;;;5017470;28;20042;-87
2023/09/10 06:14:35;;;;;;;25.27;21.77;;;16.10;99.90;;;;;;4966001;28;20046;-86
2023/09/10 06:17:04;;;;;;;24.25;21.38;;;16.20;99.90;;;;;;4965469;28;20122;-86
2023/09/10 06:19:30;;;;;;;23.77;20.55;;;16.30;99.90;;;;;;4978051;28;20049;-87
2023/09/10 06:21:56;;;;;;;22.98;19.10;;;16.40;99.90;;;;;;4982015;28;20426;-87
2023/09/10 06:24:24;;;;;;;22.92;19.50;;;16.50;99.90;;;;;;4975607;28;20125;-87
2023/09/10 06:26:50;;;;;;;22.90;19.23;;;16.60;99.90;;;;;;4989672;28;20045;-87
2023/09/10 06:29:15;;;;;;;25.30;21.75;;;16.70;99.90;;;;;;4986409;28;20026;-86
2023/09/10 06:31:44;;;;;;;27.80;23.10;;;16.90;99.90;;;;;;4985183;28;20046;-87
2023/09/10 06:34:10;;;;;;;30.70;25.38;;;17.00;99.90;;;;;;5000071;28;20038;-87
2023/09/10 06:36:36;;;;;;;32.35;25.75;;;17.10;99.90;;;;;;5010584;28;20035;-87
2023/09/10 06:39:03;;;;;;;30.20;25.30;;;17.30;99.90;;;;;;5000793;28;20096;-86
2023/09/10 06:41:29;;;;;;;33.00;26.23;;;17.40;99.90;;;;;;4970390;28;20056;-87
2023/09/10 06:43:54;;;;;;;31.73;26.55;;;17.50;99.90;;;;;;5010590;28;20451;-87
2023/09/10 06:46:23;;;;;;;37.75;29.40;;;17.60;99.90;;;;;;4991835;28;20119;-87
2023/09/10 06:48:49;;;;;;;37.10;29.92;;;17.70;99.90;;;;;;4986185;28;20330;-86
2023/09/10 06:51:14;;;;;;;38.33;30.33;;;17.80;99.90;;;;;;5018151;28;20256;-87
2023/09/10 06:53:40;;;;;;;36.60;29.85;;;17.90;99.90;;;;;;5015990;28;20069;-87
2023/09/10 06:56:09;;;;;;;37.85;30.42;;;18.00;99.90;;;;;;5015114;28;20122;-87
2023/09/10 06:58:35;;;;;;;39.42;32.08;;;18.20;99.90;;;;;;4982699;28;20512;-87
2023/09/10 07:01:08;;;;;;;39.25;31.13;;;18.30;99.90;;;;;;4966604;28;20069;-87
2023/09/10 07:03:34;;;;;;;42.92;31.67;;;18.40;99.90;;;;;;4987076;28;20046;-87
2023/09/10 07:06:03;;;;;;;39.75;30.83;;;18.50;99.90;;;;;;5003836;28;20038;-87
2023/09/10 07:08:32;;;;;;;37.80;31.35;;;18.60;99.90;;;;;;4970079;28;20077;-87
2023/09/10 07:10:57;;;;;;;40.20;30.08;;;18.70;99.90;;;;;;4968399;28;20050;-87
2023/09/10 07:13:23;;;;;;;34.50;29.23;;;18.80;99.90;;;;;;4972770;28;20049;-87
2023/09/10 07:15:49;;;;;;;36.30;28.95;;;18.90;99.90;;;;;;4970127;28;20057;-87
2023/09/10 07:18:14;;;;;;;38.28;30.45;;;19.00;99.90;;;;;;4972112;28;20410;-87
2023/09/10 07:20:40;;;;;;;40.47;32.83;;;19.10;99.90;;;;;;4971162;28;20506;-87
2023/09/10 07:23:05;;;;;;;41.38;32.63;;;19.20;99.90;;;;;;5001368;28;20065;-87
2023/09/10 07:25:31;;;;;;;40.10;33.20;;;19.30;99.90;;;;;;4986218;28;20054;-87
2023/09/10 07:27:59;;;;;;;37.88;31.17;;;19.40;99.90;;;;;;4963694;28;20053;-87
2023/09/10 07:30:25;;;;;;;39.65;31.02;;;19.60;99.90;;;;;;4962826;28;20176;-87
2023/09/10 07:32:51;;;;;;;39.83;32.25;;;19.60;99.90;;;;;;4974153;28;20125;-87
2023/09/10 07:35:22;;;;;;;41.00;32.17;;;19.80;99.90;;;;;;4971423;28;20796;-88
2023/09/10 07:37:48;;;;;;;36.78;30.85;;;19.90;99.90;;;;;;4996580;28;20130;-87
2023/09/10 07:40:14;;;;;;;38.22;31.75;;;20.00;99.90;;;;;;4966580;28;20115;-87
2023/09/10 07:42:40;;;;;;;41.17;31.42;;;20.20;99.90;;;;;;4968720;28;20046;-87
2023/09/10 07:45:13;;;;;;;36.90;30.73;;;20.30;99.90;;;;;;4983492;28;20034;-87
2023/09/10 07:47:40;;;;;;;39.30;31.73;;;20.30;99.90;;;;;;4962836;28;20479;-86
2023/09/10 07:50:06;;;;;;;36.90;31.75;;;20.60;99.90;;;;;;4971824;28;20042;-87
2023/09/10 07:52:32;;;;;;;38.63;31.23;;;20.70;99.90;;;;;;4975464;28;20039;-88
2023/09/10 07:54:57;;;;;;;38.08;32.92;;;20.80;99.90;;;;;;4980650;28;20531;-88
2023/09/10 07:57:24;;;;;;;35.50;31.02;;;21.00;99.90;;;;;;5016364;28;20046;-89
2023/09/10 07:59:51;;;;;;;33.45;29.30;;;21.10;99.90;;;;;;4969773;28;20258;-89
2023/09/10 08:02:16;;;;;;;31.95;27.60;;;21.20;99.90;;;;;;4985981;28;20029;-88
2023/09/10 08:04:43;;;;;;;30.73;27.25;;;21.40;99.90;;;;;;4976673;28;20117;-89
2023/09/10 08:07:10;;;;;;;29.73;25.80;;;21.50;99.90;;;;;;4970768;28;20262;-89
2023/09/10 08:09:37;;;;;;;31.55;26.45;;;21.60;99.90;;;;;;4986327;28;20040;-88
2023/09/10 08:12:03;;;;;;;34.42;26.85;;;21.70;99.90;;;;;;4996307;28;20076;-90
2023/09/10 08:14:29;;;;;;;30.85;26.50;;;21.90;99.90;;;;;;5008487;28;20041;-89
2023/09/10 08:16:55;;;;;;;30.77;24.83;;;22.00;99.90;;;;;;4968979;28;20092;-89
2023/09/10 08:19:21;;;;;;;31.75;25.77;;;22.10;99.90;;;;;;4982406;28;20074;-89
2023/09/10 08:21:47;;;;;;;29.75;24.90;;;22.30;99.90;;;;;;4975325;28;20045;-90
2023/09/10 08:24:15;;;;;;;27.27;22.30;;;22.40;99.90;;;;;;5004171;28;20718;-89
2023/09/10 08:26:41;;;;;;;24.48;21.83;;;22.50;99.90;;;;;;4981089;28;20367;-89
2023/09/10 08:29:07;;;;;;;22.85;20.45;;;22.60;99.90;;;;;;5015381;28;20042;-89
2023/09/10 08:31:33;;;;;;;22.95;20.42;;;22.70;99.90;;;;;;4978000;28;20397;-89
2023/09/10 08:33:58;;;;;;;26.75;21.55;;;22.90;99.90;;;;;;4993333;28;20050;-90
2023/09/10 08:36:24;;;;;;;21.42;18.70;;;22.70;99.90;;;;;;4982893;28;20050;-89
2023/09/10 08:38:50;;;;;;;20.83;18.40;;;22.90;99.90;;;;;;4982498;28;20327;-88
2023/09/10 08:41:28;;;;;;;24.60;19.17;;;23.10;99.90;;;;;;4970959;28;20065;-89
2023/09/10 08:44:00;;;;;;;21.00;18.20;;;23.20;99.90;;;;;;4979863;28;20302;-90
2023/09/10 08:46:30;;;;;;;20.33;17.20;;;23.20;99.90;;;;;;4977012;28;20057;-90
2023/09/10 08:48:57;;;;;;;20.55;16.75;;;23.40;99.90;;;;;;4974526;28;20123;-89
2023/09/10 08:51:23;;;;;;;16.90;15.07;;;23.70;99.90;;;;;;5019514;28;20576;-89
2023/09/10 08:53:51;;;;;;;17.63;14.48;;;23.60;99.90;;;;;;4967323;28;20046;-89
2023/09/10 08:56:17;;;;;;;17.83;16.02;;;23.80;99.90;;;;;;4969310;28;20042;-89
2023/09/10 08:58:44;;;;;;;20.35;15.35;;;23.90;99.90;;;;;;4971288;28;20046;-90
2023/09/10 09:01:11;;;;;;;16.23;13.25;;;24.00;99.90;;;;;;4986312;28;20589;-89
2023/09/10 09:03:37;;;;;;;13.77;12.10;;;24.00;99.90;;;;;;4988780;28;20390;-89
2023/09/10 09:06:04;;;;;;;14.93;12.40;;;24.10;99.90;;;;;;4983533;28;20040;-88
2023/09/10 09:08:35;;;;;;;20.08;12.55;;;24.30;99.90;;;;;;4973634;28;20108;-90
2023/09/10 09:11:06;;;;;;;16.00;12.20;;;24.30;99.90;;;;;;4979531;28;20061;-89
2023/09/10 09:13:38;;;;;;;17.42;12.88;;;24.50;99.90;;;;;;4985390;28;20151;-88
2023/09/10 09:16:05;;;;;;;16.02;12.10;;;24.60;99.90;;;;;;4983349;28;20081;-88
2023/09/10 09:18:33;;;;;;;12.80;11.50;;;24.60;99.90;;;;;;4985329;28;20062;-90
2023/09/10 09:21:03;;;;;;;16.95;12.30;;;24.70;99.90;;;;;;4967442;28;20070;-89
2023/09/10 09:23:34;;;;;;;14.05;12.65;;;24.80;99.90;;;;;;4997726;28;20631;-88
2023/09/10 09:26:01;;;;;;;14.57;12.93;;;24.80;99.90;;;;;;4985720;28;20040;-88
2023/09/10 09:28:29;;;;;;;12.10;10.88;;;24.90;99.90;;;;;;4982786;28;20103;-88
2023/09/10 09:30:57;;;;;;;14.48;12.25;;;25.10;99.90;;;;;;4983720;28;20158;-88
2023/09/10 09:33:24;;;;;;;14.18;12.40;;;25.00;99.90;;;;;;4967496;28;20165;-89
2023/09/10 09:35:49;;;;;;;14.30;12.60;;;25.10;99.90;;;;;;4990045;28;20165;-89
2023/09/10 09:38:15;;;;;;;13.05;10.25;;;25.20;99.90;;;;;;5010131;28;20488;-88
2023/09/10 09:40:42;;;;;;;12.52;9.60;;;25.10;99.90;;;;;;5016003;28;20049;-88
2023/09/10 09:43:12;;;;;;;11.68;9.60;;;25.50;99.90;;;;;;4982173;28;20038;-89
2023/09/10 09:45:39;;;;;;;12.43;9.32;;;25.60;99.90;;;;;;4984022;28;20573;-88
2023/09/10 09:48:05;;;;;;;9.90;8.63;;;25.60;99.90;;;;;;4998554;28;20535;-88
2023/09/10 09:50:32;;;;;;;10.50;8.98;;;25.80;99.90;;;;;;5001865;28;20355;-88
2023/09/10 09:52:58;;;;;;;9.88;8.57;;;25.90;99.90;;;;;;4990360;28;20219;-87
2023/09/10 09:55:24;;;;;;;11.30;8.77;;;25.90;99.90;;;;;;4970627;28;20042;-88
2023/09/10 09:57:50;;;;;;;18.42;9.40;;;25.90;99.90;;;;;;4986010;28;20125;-89
2023/09/10 10:00:16;;;;;;;9.98;8.15;;;26.10;99.90;;;;;;4961252;28;20045;-87
2023/09/10 10:02:43;;;;;;;14.52;8.45;;;25.80;99.90;;;;;;4998773;28;20046;-88
2023/09/10 10:05:09;;;;;;;9.85;8.63;;;26.10;99.90;;;;;;4986166;28;20030;-88
2023/09/10 10:07:36;;;;;;;10.38;8.38;;;26.10;99.90;;;;;;4974586;28;20461;-89
2023/09/10 10:10:06;;;;;;;13.55;8.45;;;26.30;99.90;;;;;;5002011;28;20434;-88
2023/09/10 10:12:32;;;;;;;11.25;9.15;;;26.40;99.90;;;;;;5011575;28;20050;-89
2023/09/10 10:14:59;;;;;;;10.25;8.88;;;26.30;99.90;;;;;;4987530;28;20343;-87
2023/09/10 10:17:29;;;;;;;11.10;8.02;;;26.50;99.90;;;;;;4969292;28;20048;-88
2023/09/10 10:19:56;;;;;;;9.98;8.93;;;26.60;99.90;;;;;;5018416;28;20042;-87
2023/09/10 10:22:25;;;;;;;12.73;8.55;;;26.70;99.90;;;;;;4992128;28;20033;-87
2023/09/10 10:24:51;;;;;;;10.23;8.70;;;26.80;99.90;;;;;;4972738;28;20129;-88
2023/09/10 10:27:18;;;;;;;15.48;7.88;;;27.00;99.90;;;;;;4987477;28;20541;-88
2023/09/10 10:29:44;;;;;;;9.25;8.20;;;27.10;99.90;;;;;;4988050;28;20100;-87
2023/09/10 10:32:28;;;;;;;10.95;8.50;;;26.80;99.90;;;;;;4989338;28;20038;-88
2023/09/10 10:34:59;;;;;;;10.82;7.75;;;27.20;99.90;;;;;;4969348;28;20891;-89
2023/09/10 10:37:32;;;;;;;11.10;8.88;;;27.40;99.90;;;;;;5003556;28;20125;-89
2023/09/10 10:40:16;;;;;;;12.48;8.80;;;27.30;99.90;;;;;;5004344;28;20041;-89
2023/09/10 10:42:45;;;;;;;9.57;8.57;;;27.20;99.90;;;;;;4983580;28;20045;-87
2023/09/10 10:45:15;;;;;;;9.20;8.30;;;27.50;99.90;;;;;;5014405;28;20050;-86
2023/09/10 10:47:42;;;;;;;12.07;8.80;;;27.30;99.90;;;;;;5014617;28;20092;-82
2023/09/10 10:50:10;;;;;;;11.10;8.30;;;27.60;99.90;;;;;;4974408;28;20101;-87
2023/09/10 10:52:43;;;;;;;9.30;7.32;;;27.80;99.90;;;;;;4976101;28;20050;-88
2023/09/10 10:55:09;;;;;;;15.55;8.10;;;27.70;99.90;;;;;;4983546;28;20053;-89
2023/09/10 10:57:36;;;;;;;7.78;7.05;;;28.00;99.90;;;;;;4988172;28;20046;-88
2023/09/10 11:00:05;;;;;;;11.48;8.63;;;27.80;99.90;;;;;;5020180;28;20458;-88
2023/09/10 11:02:30;;;;;;;11.73;7.97;;;27.80;99.90;;;;;;5023850;28;20310;-86
2023/09/10 11:05:00;;;;;;;9.35;8.18;;;28.10;99.90;;;;;;5001618;28;20045;-86
2023/09/10 11:07:29;;;;;;;13.45;8.35;;;28.00;99.90;;;;;;4989167;28;20164;-86
2023/09/10 11:10:00;;;;;;;9.20;8.07;;;27.80;99.90;;;;;;5022505;28;20046;-86
2023/09/10 11:12:27;;;;;;;8.77;7.53;;;28.10;99.90;;;;;;4989085;28;20445;-85
2023/09/10 11:15:06;;;;;;;10.55;7.40;;;28.20;99.90;;;;;;4967728;28;20034;-86
2023/09/10 11:17:33;;;;;;;8.05;7.25;;;28.10;99.90;;;;;;5012324;28;20030;-86
2023/09/10 11:20:00;;;;;;;10.13;7.53;;;28.30;99.90;;;;;;5019394;28;20054;-86
2023/09/10 11:22:27;;;;;;;9.13;7.45;;;28.40;99.90;;;;;;5001770;28;20047;-86
2023/09/10 11:24:59;;;;;;;11.60;6.72;;;28.40;99.90;;;;;;4997538;28;20038;-87
2023/09/10 11:27:30;;;;;;;8.23;7.25;;;28.60;99.90;;;;;;4984672;28;20056;-86
2023/09/10 11:30:23;;;;;;;9.27;7.50;;;28.70;99.90;;;;;;4996567;28;20583;-85
2023/09/10 11:33:09;;;;;;;7.38;6.60;;;28.10;99.90;;;;;;4997402;28;20048;-86
2023/09/10 11:35:37;;;;;;;10.35;6.80;;;28.50;99.90;;;;;;4963360;28;20531;-87
2023/09/10 11:38:03;;;;;;;10.80;7.20;;;28.90;99.90;;;;;;4987981;28;20042;-86
2023/09/10 11:40:28;;;;;;;11.27;6.82;;;28.60;99.90;;;;;;4986604;28;20324;-87
2023/09/10 11:42:55;;;;;;;9.63;7.15;;;28.60;99.90;;;;;;4979343;28;20052;-87
2023/09/10 11:45:21;;;;;;;7.78;6.95;;;29.10;99.90;;;;;;4976739;28;20169;-87
2023/09/10 11:47:49;;;;;;;9.35;6.78;;;29.10;99.90;;;;;;4987576;28;20137;-86
2023/09/10 11:50:20;;;;;;;11.00;6.93;;;29.30;99.90;;;;;;5018091;28;20072;-86
2023/09/10 11:52:46;;;;;;;8.75;6.43;;;29.40;99.90;;;;;;4975249;28;20112;-86
2023/09/10 11:55:11;;;;;;;12.13;7.32;;;29.20;99.90;;;;;;5015947;28;20444;-87
2023/09/10 11:57:37;;;;;;;9.55;6.93;;;28.90;99.90;;;;;;4985617;28;20049;-86
2023/09/10 12:00:05;;;;;;;10.88;7.07;;;29.30;99.90;;;;;;5021814;28;20045;-87
2023/09/10 12:02:31;;;;;;;12.63;7.25;;;29.40;99.90;;;;;;4985766;28;20046;-87
2023/09/10 12:04:59;;;;;;;9.35;7.03;;;29.30;99.90;;;;;;4986373;28;20049;-85
2023/09/10 12:07:28;;;;;;;11.48;6.88;;;29.20;99.90;;;;;;4981279;28;20135;-85
2023/09/10 12:09:53;;;;;;;10.65;6.63;;;29.30;99.90;;;;;;5002835;28;20344;-85
2023/09/10 12:12:27;;;;;;;10.05;7.18;;;29.80;99.90;;;;;;4999055;28;20100;-86
2023/09/10 12:14:53;;;;;;;11.75;7.35;;;29.60;99.90;;;;;;4978767;28;20038;-85
2023/09/10 12:17:19;;;;;;;14.40;6.57;;;29.80;99.90;;;;;;5005572;28;20464;-82
2023/09/10 12:19:45;;;;;;;9.13;6.65;;;29.90;99.90;;;;;;5007225;28;20038;-82
2023/09/10 12:22:14;;;;;;;9.57;6.63;;;29.80;99.90;;;;;;4987105;28;20121;-81
2023/09/10 12:24:40;;;;;;;11.23;7.00;;;30.30;99.90;;;;;;4964513;28;20049;-82
2023/09/10 12:27:06;;;;;;;9.20;6.45;;;30.40;99.90;;;;;;4990622;28;20038;-82
2023/09/10 12:29:32;;;;;;;11.65;7.22;;;30.70;99.90;;;;;;5006538;28;20121;-82
2023/09/10 12:32:00;;;;;;;11.55;6.93;;;30.40;99.90;;;;;;5000403;28;20029;-82